sensor_id;sensor_type;location;lat;lon;timestamp;P1;durP1;ratioP1;P2;durP2;ratioP2
46675;SDS011;32412;51.478;5.694;2023-04-28T00:02:18;15.32;;;10.05;;
46675;SDS011;32412;51.478;5.694;2023-04-28T00:04:43;21.02;;;11.30;;
46675;SDS011;32412;51.478;5.694;2023-04-28T00:07:09;20.95;;;11.05;;
46675;SDS011;32412;51.478;5.694;2023-04-28T00:09:35;18.98;;;11.10;;
46675;SDS011;32412;51.478;5.694;2023-04-28T00:12:01;17.35;;;10.55;;
46675;SDS011;32412;51.478;5.694;2023-04-28T00:14:27;18.48;;;10.55;;
46675;SDS011;32412;51.478;5.694;2023-04-28T00:16:53;20.73;;;11.30;;
46675;SDS011;32412;51.478;5.694;2023-04-28T00:19:20;19.65;;;11.95;;
46675;SDS011;32412;51.478;5.694;2023-04-28T00:21:46;18.90;;;11.98;;
46675;SDS011;32412;51.478;5.694;2023-04-28T00:24:12;19.80;;;11.38;;
46675;SDS011;32412;51.478;5.694;2023-04-28T00:26:43;18.58;;;11.63;;
46675;SDS011;32412;51.478;5.694;2023-04-28T00:29:09;21.17;;;11.90;;
46675;SDS011;32412;51.478;5.694;2023-04-28T00:31:34;21.75;;;12.57;;
46675;SDS011;32412;51.478;5.694;2023-04-28T00:34:00;19.10;;;11.48;;
46675;SDS011;32412;51.478;5.694;2023-04-28T00:36:26;23.55;;;12.13;;
46675;SDS011;32412;51.478;5.694;2023-04-28T00:38:56;21.52;;;11.95;;
46675;SDS011;32412;51.478;5.694;2023-04-28T00:41:22;18.88;;;11.30;;
46675;SDS011;32412;51.478;5.694;2023-04-28T00:43:48;24.23;;;13.00;;
46675;SDS011;32412;51.478;5.694;2023-04-28T00:46:21;22.95;;;12.90;;
46675;SDS011;32412;51.478;5.694;2023-04-28T00:48:52;21.60;;;13.52;;
46675;SDS011;32412;51.478;5.694;2023-04-28T00:51:18;23.02;;;13.80;;
46675;SDS011;32412;51.478;5.694;2023-04-28T00:53:43;23.25;;;13.25;;
46675;SDS011;32412;51.478;5.694;2023-04-28T00:56:09;23.98;;;13.45;;
46675;SDS011;32412;51.478;5.694;2023-04-28T00:58:36;26.45;;;13.65;;
46675;SDS011;32412;51.478;5.694;2023-04-28T01:01:02;26.27;;;14.88;;
46675;SDS011;32412;51.478;5.694;2023-04-28T01:03:33;24.92;;;13.18;;
46675;SDS011;32412;51.478;5.694;2023-04-28T01:06:01;27.33;;;14.43;;
46675;SDS011;32412;51.478;5.694;2023-04-28T01:08:32;23.48;;;13.48;;
46675;SDS011;32412;51.478;5.694;2023-04-28T01:10:59;28.48;;;15.43;;
46675;SDS011;32412;51.478;5.694;2023-04-28T01:13:26;25.80;;;14.38;;
46675;SDS011;32412;51.478;5.694;2023-04-28T01:15:52;30.92;;;15.38;;
46675;SDS011;32412;51.478;5.694;2023-04-28T01:18:19;24.58;;;15.18;;
46675;SDS011;32412;51.478;5.694;2023-04-28T01:20:44;23.33;;;14.80;;
46675;SDS011;32412;51.478;5.694;2023-04-28T01:23:11;25.77;;;14.27;;
46675;SDS011;32412;51.478;5.694;2023-04-28T01:25:37;25.75;;;14.15;;
46675;SDS011;32412;51.478;5.694;2023-04-28T01:28:03;30.15;;;14.90;;
46675;SDS011;32412;51.478;5.694;2023-04-28T01:30:28;24.40;;;13.38;;
46675;SDS011;32412;51.478;5.694;2023-04-28T01:32:54;26.77;;;13.60;;
46675;SDS011;32412;51.478;5.694;2023-04-28T01:35:20;29.23;;;14.38;;
46675;SDS011;32412;51.478;5.694;2023-04-28T01:37:46;25.15;;;13.45;;
46675;SDS011;32412;51.478;5.694;2023-04-28T01:40:12;24.17;;;13.55;;
46675;SDS011;32412;51.478;5.694;2023-04-28T01:42:37;23.58;;;12.70;;
46675;SDS011;32412;51.478;5.694;2023-04-28T01:45:03;24.58;;;13.52;;
46675;SDS011;32412;51.478;5.694;2023-04-28T01:47:30;22.77;;;13.00;;
46675;SDS011;32412;51.478;5.694;2023-04-28T01:49:56;22.85;;;13.95;;
46675;SDS011;32412;51.478;5.694;2023-04-28T01:52:21;22.60;;;13.25;;
46675;SDS011;32412;51.478;5.694;2023-04-28T01:54:48;28.05;;;14.25;;
46675;SDS011;32412;51.478;5.694;2023-04-28T01:57:15;22.92;;;12.85;;
46675;SDS011;32412;51.478;5.694;2023-04-28T01:59:40;24.17;;;14.05;;
46675;SDS011;32412;51.478;5.694;2023-04-28T02:02:06;25.08;;;13.52;;
46675;SDS011;32412;51.478;5.694;2023-04-28T02:04:32;25.00;;;13.60;;
46675;SDS011;32412;51.478;5.694;2023-04-28T02:06:58;23.75;;;12.73;;
46675;SDS011;32412;51.478;5.694;2023-04-28T02:09:23;29.45;;;13.68;;
46675;SDS011;32412;51.478;5.694;2023-04-28T02:11:49;22.83;;;12.93;;
46675;SDS011;32412;51.478;5.694;2023-04-28T02:14:15;21.42;;;13.13;;
46675;SDS011;32412;51.478;5.694;2023-04-28T02:16:44;28.42;;;13.82;;
46675;SDS011;32412;51.478;5.694;2023-04-28T02:19:10;24.58;;;14.07;;
46675;SDS011;32412;51.478;5.694;2023-04-28T02:21:36;25.55;;;14.23;;
46675;SDS011;32412;51.478;5.694;2023-04-28T02:24:01;27.02;;;14.30;;
46675;SDS011;32412;51.478;5.694;2023-04-28T02:26:27;23.20;;;13.80;;
46675;SDS011;32412;51.478;5.694;2023-04-28T02:28:53;23.25;;;13.73;;
46675;SDS011;32412;51.478;5.694;2023-04-28T02:31:18;27.77;;;13.75;;
46675;SDS011;32412;51.478;5.694;2023-04-28T02:33:44;25.67;;;13.88;;
46675;SDS011;32412;51.478;5.694;2023-04-28T02:36:10;25.10;;;14.52;;
46675;SDS011;32412;51.478;5.694;2023-04-28T02:38:36;27.73;;;14.07;;
46675;SDS011;32412;51.478;5.694;2023-04-28T02:41:02;23.80;;;12.68;;
46675;SDS011;32412;51.478;5.694;2023-04-28T02:43:32;23.80;;;13.38;;
46675;SDS011;32412;51.478;5.694;2023-04-28T02:45:58;24.13;;;14.25;;
46675;SDS011;32412;51.478;5.694;2023-04-28T02:48:25;24.48;;;14.60;;
46675;SDS011;32412;51.478;5.694;2023-04-28T02:50:51;24.40;;;13.85;;
46675;SDS011;32412;51.478;5.694;2023-04-28T02:53:17;24.58;;;13.88;;
46675;SDS011;32412;51.478;5.694;2023-04-28T02:55:43;26.00;;;14.60;;
46675;SDS011;32412;51.478;5.694;2023-04-28T02:58:09;26.33;;;14.07;;
46675;SDS011;32412;51.478;5.694;2023-04-28T03:00:35;26.08;;;14.88;;
46675;SDS011;32412;51.478;5.694;2023-04-28T03:03:01;29.42;;;14.25;;
46675;SDS011;32412;51.478;5.694;2023-04-28T03:05:27;27.33;;;14.68;;
46675;SDS011;32412;51.478;5.694;2023-04-28T03:07:52;29.02;;;14.88;;
46675;SDS011;32412;51.478;5.694;2023-04-28T03:10:18;25.65;;;14.70;;
46675;SDS011;32412;51.478;5.694;2023-04-28T03:12:44;27.55;;;14.10;;
46675;SDS011;32412;51.478;5.694;2023-04-28T03:15:10;29.95;;;14.95;;
46675;SDS011;32412;51.478;5.694;2023-04-28T03:17:36;30.35;;;14.55;;
46675;SDS011;32412;51.478;5.694;2023-04-28T03:20:05;27.70;;;14.63;;
46675;SDS011;32412;51.478;5.694;2023-04-28T03:22:32;26.20;;;15.50;;
46675;SDS011;32412;51.478;5.694;2023-04-28T03:24:58;27.45;;;15.25;;
46675;SDS011;32412;51.478;5.694;2023-04-28T03:27:24;28.92;;;14.93;;
46675;SDS011;32412;51.478;5.694;2023-04-28T03:29:50;25.88;;;15.23;;
46675;SDS011;32412;51.478;5.694;2023-04-28T03:32:16;24.98;;;14.77;;
46675;SDS011;32412;51.478;5.694;2023-04-28T03:34:41;26.67;;;15.30;;
46675;SDS011;32412;51.478;5.694;2023-04-28T03:37:07;28.13;;;15.70;;
46675;SDS011;32412;51.478;5.694;2023-04-28T03:39:32;28.88;;;15.95;;
46675;SDS011;32412;51.478;5.694;2023-04-28T03:41:58;28.88;;;16.00;;
46675;SDS011;32412;51.478;5.694;2023-04-28T03:44:25;25.17;;;15.20;;
46675;SDS011;32412;51.478;5.694;2023-04-28T03:46:53;29.85;;;15.70;;
46675;SDS011;32412;51.478;5.694;2023-04-28T03:49:22;29.80;;;16.00;;
46675;SDS011;32412;51.478;5.694;2023-04-28T03:51:48;30.55;;;15.85;;
46675;SDS011;32412;51.478;5.694;2023-04-28T03:54:15;28.83;;;15.65;;
46675;SDS011;32412;51.478;5.694;2023-04-28T03:56:41;27.42;;;15.68;;
46675;SDS011;32412;51.478;5.694;2023-04-28T03:59:06;31.77;;;16.58;;
46675;SDS011;32412;51.478;5.694;2023-04-28T04:01:35;25.98;;;15.60;;
46675;SDS011;32412;51.478;5.694;2023-04-28T04:04:01;25.75;;;15.77;;
46675;SDS011;32412;51.478;5.694;2023-04-28T04:06:27;26.50;;;16.35;;
46675;SDS011;32412;51.478;5.694;2023-04-28T04:08:52;26.83;;;16.13;;
46675;SDS011;32412;51.478;5.694;2023-04-28T04:11:18;28.02;;;16.40;;
46675;SDS011;32412;51.478;5.694;2023-04-28T04:13:45;30.33;;;15.88;;
46675;SDS011;32412;51.478;5.694;2023-04-28T04:16:11;28.40;;;16.77;;
46675;SDS011;32412;51.478;5.694;2023-04-28T04:18:39;26.63;;;16.45;;
46675;SDS011;32412;51.478;5.694;2023-04-28T04:21:05;32.28;;;16.83;;
46675;SDS011;32412;51.478;5.694;2023-04-28T04:23:31;27.88;;;17.00;;
46675;SDS011;32412;51.478;5.694;2023-04-28T04:25:57;25.60;;;15.27;;
46675;SDS011;32412;51.478;5.694;2023-04-28T04:28:22;29.30;;;16.60;;
46675;SDS011;32412;51.478;5.694;2023-04-28T04:30:48;28.13;;;16.00;;
46675;SDS011;32412;51.478;5.694;2023-04-28T04:33:14;30.50;;;16.60;;
46675;SDS011;32412;51.478;5.694;2023-04-28T04:35:39;30.13;;;16.05;;
46675;SDS011;32412;51.478;5.694;2023-04-28T04:38:05;27.80;;;16.30;;
46675;SDS011;32412;51.478;5.694;2023-04-28T04:40:31;26.83;;;16.40;;
46675;SDS011;32412;51.478;5.694;2023-04-28T04:42:57;26.98;;;16.15;;
46675;SDS011;32412;51.478;5.694;2023-04-28T04:45:22;28.85;;;16.23;;
46675;SDS011;32412;51.478;5.694;2023-04-28T04:47:48;30.98;;;15.80;;
46675;SDS011;32412;51.478;5.694;2023-04-28T04:50:14;27.63;;;15.70;;
46675;SDS011;32412;51.478;5.694;2023-04-28T04:52:40;23.00;;;16.30;;
46675;SDS011;32412;51.478;5.694;2023-04-28T04:55:06;27.05;;;15.85;;
46675;SDS011;32412;51.478;5.694;2023-04-28T04:57:32;24.88;;;15.65;;
46675;SDS011;32412;51.478;5.694;2023-04-28T04:59:58;30.40;;;16.77;;
46675;SDS011;32412;51.478;5.694;2023-04-28T05:02:23;23.75;;;15.63;;
46675;SDS011;32412;51.478;5.694;2023-04-28T05:04:49;27.65;;;16.02;;
46675;SDS011;32412;51.478;5.694;2023-04-28T05:07:15;29.90;;;16.83;;
46675;SDS011;32412;51.478;5.694;2023-04-28T05:09:40;26.63;;;15.45;;
46675;SDS011;32412;51.478;5.694;2023-04-28T05:12:06;24.40;;;15.30;;
46675;SDS011;32412;51.478;5.694;2023-04-28T05:14:32;27.67;;;16.90;;
46675;SDS011;32412;51.478;5.694;2023-04-28T05:16:57;25.25;;;16.25;;
46675;SDS011;32412;51.478;5.694;2023-04-28T05:19:23;25.10;;;15.25;;
46675;SDS011;32412;51.478;5.694;2023-04-28T05:21:49;23.27;;;15.30;;
46675;SDS011;32412;51.478;5.694;2023-04-28T05:24:17;23.95;;;15.40;;
46675;SDS011;32412;51.478;5.694;2023-04-28T05:26:47;24.77;;;15.68;;
46675;SDS011;32412;51.478;5.694;2023-04-28T05:29:12;24.70;;;14.93;;
46675;SDS011;32412;51.478;5.694;2023-04-28T05:31:38;26.88;;;15.88;;
46675;SDS011;32412;51.478;5.694;2023-04-28T05:34:04;27.38;;;15.57;;
46675;SDS011;32412;51.478;5.694;2023-04-28T05:36:30;33.83;;;15.07;;
46675;SDS011;32412;51.478;5.694;2023-04-28T05:38:56;23.85;;;14.48;;
46675;SDS011;32412;51.478;5.694;2023-04-28T05:41:21;28.63;;;14.70;;
46675;SDS011;32412;51.478;5.694;2023-04-28T05:43:47;24.23;;;15.23;;
46675;SDS011;32412;51.478;5.694;2023-04-28T05:46:15;27.88;;;14.75;;
46675;SDS011;32412;51.478;5.694;2023-04-28T05:48:41;27.15;;;15.38;;
46675;SDS011;32412;51.478;5.694;2023-04-28T05:51:07;28.33;;;14.82;;
46675;SDS011;32412;51.478;5.694;2023-04-28T05:53:32;28.25;;;14.38;;
46675;SDS011;32412;51.478;5.694;2023-04-28T05:55:58;29.92;;;15.20;;
46675;SDS011;32412;51.478;5.694;2023-04-28T05:58:24;18.30;;;13.90;;
46675;SDS011;32412;51.478;5.694;2023-04-28T06:00:49;26.35;;;14.07;;
46675;SDS011;32412;51.478;5.694;2023-04-28T06:03:15;23.17;;;13.27;;
46675;SDS011;32412;51.478;5.694;2023-04-28T06:05:43;20.50;;;13.32;;
46675;SDS011;32412;51.478;5.694;2023-04-28T06:08:09;19.55;;;13.70;;
46675;SDS011;32412;51.478;5.694;2023-04-28T06:10:34;19.40;;;13.32;;
46675;SDS011;32412;51.478;5.694;2023-04-28T06:13:00;20.30;;;13.75;;
46675;SDS011;32412;51.478;5.694;2023-04-28T06:15:28;20.42;;;13.10;;
46675;SDS011;32412;51.478;5.694;2023-04-28T06:17:54;24.35;;;12.73;;
46675;SDS011;32412;51.478;5.694;2023-04-28T06:20:20;20.77;;;12.65;;
46675;SDS011;32412;51.478;5.694;2023-04-28T06:22:46;18.35;;;12.85;;
46675;SDS011;32412;51.478;5.694;2023-04-28T06:25:11;21.92;;;13.07;;
46675;SDS011;32412;51.478;5.694;2023-04-28T06:27:37;20.58;;;12.48;;
46675;SDS011;32412;51.478;5.694;2023-04-28T06:30:05;19.85;;;12.63;;
46675;SDS011;32412;51.478;5.694;2023-04-28T06:32:31;18.75;;;13.15;;
46675;SDS011;32412;51.478;5.694;2023-04-28T06:34:57;22.40;;;12.52;;
46675;SDS011;32412;51.478;5.694;2023-04-28T06:37:23;21.10;;;12.98;;
46675;SDS011;32412;51.478;5.694;2023-04-28T06:39:49;19.15;;;12.80;;
46675;SDS011;32412;51.478;5.694;2023-04-28T06:42:14;19.80;;;11.90;;
46675;SDS011;32412;51.478;5.694;2023-04-28T06:44:42;17.95;;;11.77;;
46675;SDS011;32412;51.478;5.694;2023-04-28T06:47:09;20.50;;;12.82;;
46675;SDS011;32412;51.478;5.694;2023-04-28T06:49:35;18.40;;;12.68;;
46675;SDS011;32412;51.478;5.694;2023-04-28T06:52:01;14.35;;;11.15;;
46675;SDS011;32412;51.478;5.694;2023-04-28T06:54:26;15.80;;;11.63;;
46675;SDS011;32412;51.478;5.694;2023-04-28T06:56:52;17.17;;;11.52;;
46675;SDS011;32412;51.478;5.694;2023-04-28T06:59:18;18.42;;;11.35;;
46675;SDS011;32412;51.478;5.694;2023-04-28T07:01:44;18.38;;;11.43;;
46675;SDS011;32412;51.478;5.694;2023-04-28T07:04:09;17.60;;;11.55;;
46675;SDS011;32412;51.478;5.694;2023-04-28T07:06:35;18.70;;;11.48;;
46675;SDS011;32412;51.478;5.694;2023-04-28T07:09:03;15.27;;;10.40;;
46675;SDS011;32412;51.478;5.694;2023-04-28T07:11:29;16.35;;;10.23;;
46675;SDS011;32412;51.478;5.694;2023-04-28T07:13:57;15.60;;;9.77;;
46675;SDS011;32412;51.478;5.694;2023-04-28T07:16:23;15.02;;;10.00;;
46675;SDS011;32412;51.478;5.694;2023-04-28T07:18:49;18.48;;;10.05;;
46675;SDS011;32412;51.478;5.694;2023-04-28T07:21:15;15.20;;;10.75;;
46675;SDS011;32412;51.478;5.694;2023-04-28T07:23:41;19.40;;;11.13;;
46675;SDS011;32412;51.478;5.694;2023-04-28T07:26:07;15.93;;;11.13;;
46675;SDS011;32412;51.478;5.694;2023-04-28T07:28:33;18.35;;;11.35;;
46675;SDS011;32412;51.478;5.694;2023-04-28T07:31:00;20.42;;;11.50;;
46675;SDS011;32412;51.478;5.694;2023-04-28T07:33:27;21.25;;;12.25;;
46675;SDS011;32412;51.478;5.694;2023-04-28T07:35:52;23.08;;;12.43;;
46675;SDS011;32412;51.478;5.694;2023-04-28T07:38:18;17.98;;;12.05;;
46675;SDS011;32412;51.478;5.694;2023-04-28T07:40:44;21.95;;;11.95;;
46675;SDS011;32412;51.478;5.694;2023-04-28T07:43:11;17.75;;;12.00;;
46675;SDS011;32412;51.478;5.694;2023-04-28T07:45:38;21.20;;;11.60;;
46675;SDS011;32412;51.478;5.694;2023-04-28T07:48:04;16.27;;;12.75;;
46675;SDS011;32412;51.478;5.694;2023-04-28T07:50:30;14.60;;;11.88;;
46675;SDS011;32412;51.478;5.694;2023-04-28T07:52:57;16.35;;;12.40;;
46675;SDS011;32412;51.478;5.694;2023-04-28T07:55:22;17.63;;;11.90;;
46675;SDS011;32412;51.478;5.694;2023-04-28T07:57:48;18.58;;;12.38;;
46675;SDS011;32412;51.478;5.694;2023-04-28T08:00:14;19.90;;;13.38;;
46675;SDS011;32412;51.478;5.694;2023-04-28T08:02:41;19.33;;;13.32;;
46675;SDS011;32412;51.478;5.694;2023-04-28T08:05:09;21.55;;;13.43;;
46675;SDS011;32412;51.478;5.694;2023-04-28T08:07:35;20.20;;;12.75;;
46675;SDS011;32412;51.478;5.694;2023-04-28T08:10:01;19.05;;;12.52;;
46675;SDS011;32412;51.478;5.694;2023-04-28T08:12:29;17.92;;;12.82;;
46675;SDS011;32412;51.478;5.694;2023-04-28T08:14:55;17.40;;;13.15;;
46675;SDS011;32412;51.478;5.694;2023-04-28T08:17:21;21.58;;;14.27;;
46675;SDS011;32412;51.478;5.694;2023-04-28T08:19:49;22.73;;;14.05;;
46675;SDS011;32412;51.478;5.694;2023-04-28T08:22:15;20.52;;;13.95;;
46675;SDS011;32412;51.478;5.694;2023-04-28T08:24:40;21.13;;;14.32;;
46675;SDS011;32412;51.478;5.694;2023-04-28T08:27:06;20.35;;;14.82;;
46675;SDS011;32412;51.478;5.694;2023-04-28T08:29:32;21.13;;;14.35;;
46675;SDS011;32412;51.478;5.694;2023-04-28T08:31:58;18.42;;;13.95;;
46675;SDS011;32412;51.478;5.694;2023-04-28T08:34:25;21.88;;;16.05;;
46675;SDS011;32412;51.478;5.694;2023-04-28T08:36:51;22.83;;;15.27;;
46675;SDS011;32412;51.478;5.694;2023-04-28T08:39:17;21.33;;;16.27;;
46675;SDS011;32412;51.478;5.694;2023-04-28T08:41:44;24.67;;;16.77;;
46675;SDS011;32412;51.478;5.694;2023-04-28T08:44:10;22.58;;;16.83;;
46675;SDS011;32412;51.478;5.694;2023-04-28T08:46:40;25.40;;;17.63;;
46675;SDS011;32412;51.478;5.694;2023-04-28T08:49:09;23.38;;;17.95;;
46675;SDS011;32412;51.478;5.694;2023-04-28T08:51:54;25.75;;;18.77;;
46675;SDS011;32412;51.478;5.694;2023-04-28T08:54:23;26.92;;;18.67;;
46675;SDS011;32412;51.478;5.694;2023-04-28T08:56:55;28.60;;;19.23;;
46675;SDS011;32412;51.478;5.694;2023-04-28T08:59:22;28.98;;;20.00;;
46675;SDS011;32412;51.478;5.694;2023-04-28T09:01:48;23.50;;;18.52;;
46675;SDS011;32412;51.478;5.694;2023-04-28T09:04:17;26.05;;;18.58;;
46675;SDS011;32412;51.478;5.694;2023-04-28T09:06:44;25.77;;;17.85;;
46675;SDS011;32412;51.478;5.694;2023-04-28T09:14:17;24.95;;;17.65;;
46675;SDS011;32412;51.478;5.694;2023-04-28T09:16:43;26.45;;;17.63;;
46675;SDS011;32412;51.478;5.694;2023-04-28T09:19:08;22.63;;;17.38;;
46675;SDS011;32412;51.478;5.694;2023-04-28T09:27:08;24.13;;;17.65;;
46675;SDS011;32412;51.478;5.694;2023-04-28T09:29:38;22.02;;;16.92;;
46675;SDS011;32412;51.478;5.694;2023-04-28T09:32:16;20.63;;;15.35;;
46675;SDS011;32412;51.478;5.694;2023-04-28T09:34:50;22.35;;;14.80;;
46675;SDS011;32412;51.478;5.694;2023-04-28T09:37:27;22.45;;;16.15;;
46675;SDS011;32412;51.478;5.694;2023-04-28T09:40:04;20.73;;;15.68;;
46675;SDS011;32412;51.478;5.694;2023-04-28T09:45:09;19.02;;;15.20;;
46675;SDS011;32412;51.478;5.694;2023-04-28T09:47:39;22.75;;;16.30;;
46675;SDS011;32412;51.478;5.694;2023-04-28T09:50:06;21.05;;;14.25;;
46675;SDS011;32412;51.478;5.694;2023-04-28T09:52:36;21.38;;;13.55;;
46675;SDS011;32412;51.478;5.694;2023-04-28T09:55:03;19.42;;;14.25;;
46675;SDS011;32412;51.478;5.694;2023-04-28T09:57:32;23.58;;;16.73;;
46675;SDS011;32412;51.478;5.694;2023-04-28T09:59:58;26.58;;;16.90;;
46675;SDS011;32412;51.478;5.694;2023-04-28T10:02:25;29.08;;;17.63;;
46675;SDS011;32412;51.478;5.694;2023-04-28T10:04:52;36.17;;;20.30;;
46675;SDS011;32412;51.478;5.694;2023-04-28T10:07:19;35.92;;;20.77;;
46675;SDS011;32412;51.478;5.694;2023-04-28T10:09:45;34.95;;;22.10;;
46675;SDS011;32412;51.478;5.694;2023-04-28T10:12:14;36.35;;;21.00;;
46675;SDS011;32412;51.478;5.694;2023-04-28T10:14:44;33.58;;;20.77;;
46675;SDS011;32412;51.478;5.694;2023-04-28T10:17:11;29.30;;;20.55;;
46675;SDS011;32412;51.478;5.694;2023-04-28T10:19:39;28.85;;;19.40;;
46675;SDS011;32412;51.478;5.694;2023-04-28T10:25:07;31.50;;;19.65;;
46675;SDS011;32412;51.478;5.694;2023-04-28T10:27:43;26.80;;;18.90;;
46675;SDS011;32412;51.478;5.694;2023-04-28T10:32:37;26.48;;;18.00;;
46675;SDS011;32412;51.478;5.694;2023-04-28T10:38:07;25.90;;;18.42;;
46675;SDS011;32412;51.478;5.694;2023-04-28T10:40:38;30.60;;;18.83;;
46675;SDS011;32412;51.478;5.694;2023-04-28T10:43:05;24.58;;;18.17;;
46675;SDS011;32412;51.478;5.694;2023-04-28T10:48:17;25.98;;;18.70;;
46675;SDS011;32412;51.478;5.694;2023-04-28T10:56:18;24.95;;;18.33;;
46675;SDS011;32412;51.478;5.694;2023-04-28T10:58:58;23.65;;;17.10;;
46675;SDS011;32412;51.478;5.694;2023-04-28T11:06:32;22.15;;;16.33;;
46675;SDS011;32412;51.478;5.694;2023-04-28T11:09:01;23.35;;;16.63;;
46675;SDS011;32412;51.478;5.694;2023-04-28T11:11:39;20.45;;;15.95;;
46675;SDS011;32412;51.478;5.694;2023-04-28T11:16:57;17.83;;;14.98;;
46675;SDS011;32412;51.478;5.694;2023-04-28T11:19:26;19.17;;;14.93;;
46675;SDS011;32412;51.478;5.694;2023-04-28T11:21:54;16.83;;;13.90;;
46675;SDS011;32412;51.478;5.694;2023-04-28T11:24:22;16.80;;;14.13;;
46675;SDS011;32412;51.478;5.694;2023-04-28T11:26:53;16.95;;;13.07;;
46675;SDS011;32412;51.478;5.694;2023-04-28T11:32:03;14.05;;;12.43;;
46675;SDS011;32412;51.478;5.694;2023-04-28T11:34:33;13.93;;;12.43;;
46675;SDS011;32412;51.478;5.694;2023-04-28T11:37:02;13.60;;;11.80;;
46675;SDS011;32412;51.478;5.694;2023-04-28T11:39:31;17.52;;;12.30;;
46675;SDS011;32412;51.478;5.694;2023-04-28T11:42:09;13.15;;;11.75;;
46675;SDS011;32412;51.478;5.694;2023-04-28T11:44:35;13.43;;;11.73;;
46675;SDS011;32412;51.478;5.694;2023-04-28T11:47:01;14.15;;;11.23;;
46675;SDS011;32412;51.478;5.694;2023-04-28T11:49:28;12.02;;;10.55;;
46675;SDS011;32412;51.478;5.694;2023-04-28T11:52:05;12.52;;;10.93;;
46675;SDS011;32412;51.478;5.694;2023-04-28T11:54:31;11.80;;;10.25;;
46675;SDS011;32412;51.478;5.694;2023-04-28T11:56:59;11.85;;;10.65;;
46675;SDS011;32412;51.478;5.694;2023-04-28T11:59:26;10.82;;;9.73;;
46675;SDS011;32412;51.478;5.694;2023-04-28T12:01:58;11.38;;;10.18;;
46675;SDS011;32412;51.478;5.694;2023-04-28T12:04:28;12.63;;;10.90;;
46675;SDS011;32412;51.478;5.694;2023-04-28T12:09:34;11.32;;;10.07;;
46675;SDS011;32412;51.478;5.694;2023-04-28T12:12:02;11.73;;;10.07;;
46675;SDS011;32412;51.478;5.694;2023-04-28T12:17:34;10.90;;;9.70;;
46675;SDS011;32412;51.478;5.694;2023-04-28T12:20:06;12.57;;;10.00;;
46675;SDS011;32412;51.478;5.694;2023-04-28T12:22:59;10.57;;;8.88;;
46675;SDS011;32412;51.478;5.694;2023-04-28T12:25:26;10.00;;;9.00;;
46675;SDS011;32412;51.478;5.694;2023-04-28T12:28:02;10.20;;;9.18;;
46675;SDS011;32412;51.478;5.694;2023-04-28T12:30:30;8.68;;;7.88;;
46675;SDS011;32412;51.478;5.694;2023-04-28T12:32:57;9.23;;;8.23;;
46675;SDS011;32412;51.478;5.694;2023-04-28T12:35:23;10.02;;;8.85;;
46675;SDS011;32412;51.478;5.694;2023-04-28T12:37:51;11.18;;;9.98;;
46675;SDS011;32412;51.478;5.694;2023-04-28T12:40:17;14.60;;;11.60;;
46675;SDS011;32412;51.478;5.694;2023-04-28T12:42:44;16.05;;;12.73;;
46675;SDS011;32412;51.478;5.694;2023-04-28T12:45:09;17.15;;;13.90;;
46675;SDS011;32412;51.478;5.694;2023-04-28T12:47:35;15.50;;;12.52;;
46675;SDS011;32412;51.478;5.694;2023-04-28T12:50:02;13.25;;;11.25;;
46675;SDS011;32412;51.478;5.694;2023-04-28T12:52:29;13.20;;;11.80;;
46675;SDS011;32412;51.478;5.694;2023-04-28T12:54:57;11.95;;;10.70;;
46675;SDS011;32412;51.478;5.694;2023-04-28T12:57:23;11.27;;;10.18;;
46675;SDS011;32412;51.478;5.694;2023-04-28T12:59:50;10.73;;;9.73;;
46675;SDS011;32412;51.478;5.694;2023-04-28T13:02:17;8.75;;;7.93;;
46675;SDS011;32412;51.478;5.694;2023-04-28T13:04:43;8.70;;;7.90;;
46675;SDS011;32412;51.478;5.694;2023-04-28T13:07:12;8.00;;;7.25;;
46675;SDS011;32412;51.478;5.694;2023-04-28T13:09:41;8.02;;;6.35;;
46675;SDS011;32412;51.478;5.694;2023-04-28T13:12:07;7.38;;;6.68;;
46675;SDS011;32412;51.478;5.694;2023-04-28T13:14:34;7.78;;;7.05;;
46675;SDS011;32412;51.478;5.694;2023-04-28T13:17:03;8.75;;;7.85;;
46675;SDS011;32412;51.478;5.694;2023-04-28T13:19:29;8.02;;;6.90;;
46675;SDS011;32412;51.478;5.694;2023-04-28T13:21:56;11.13;;;7.82;;
46675;SDS011;32412;51.478;5.694;2023-04-28T13:24:22;8.85;;;7.95;;
46675;SDS011;32412;51.478;5.694;2023-04-28T13:26:48;9.50;;;8.25;;
46675;SDS011;32412;51.478;5.694;2023-04-28T13:29:15;9.98;;;8.93;;
46675;SDS011;32412;51.478;5.694;2023-04-28T13:31:42;9.80;;;8.80;;
46675;SDS011;32412;51.478;5.694;2023-04-28T13:34:07;8.60;;;7.70;;
46675;SDS011;32412;51.478;5.694;2023-04-28T13:36:39;9.20;;;8.25;;
46675;SDS011;32412;51.478;5.694;2023-04-28T13:39:07;14.30;;;10.90;;
46675;SDS011;32412;51.478;5.694;2023-04-28T13:41:37;14.13;;;10.90;;
46675;SDS011;32412;51.478;5.694;2023-04-28T13:44:03;14.65;;;10.77;;
46675;SDS011;32412;51.478;5.694;2023-04-28T13:46:28;13.88;;;11.93;;
46675;SDS011;32412;51.478;5.694;2023-04-28T13:48:54;16.52;;;12.18;;
46675;SDS011;32412;51.478;5.694;2023-04-28T13:51:20;16.70;;;13.00;;
46675;SDS011;32412;51.478;5.694;2023-04-28T13:53:47;17.90;;;12.90;;
46675;SDS011;32412;51.478;5.694;2023-04-28T13:56:12;16.02;;;12.63;;
46675;SDS011;32412;51.478;5.694;2023-04-28T13:58:39;17.65;;;13.52;;
46675;SDS011;32412;51.478;5.694;2023-04-28T14:01:05;18.38;;;13.43;;
46675;SDS011;32412;51.478;5.694;2023-04-28T14:03:34;17.20;;;13.45;;
46675;SDS011;32412;51.478;5.694;2023-04-28T14:06:05;18.20;;;13.05;;
46675;SDS011;32412;51.478;5.694;2023-04-28T14:08:32;15.93;;;13.23;;
46675;SDS011;32412;51.478;5.694;2023-04-28T14:10:57;16.80;;;12.68;;
46675;SDS011;32412;51.478;5.694;2023-04-28T14:13:23;15.77;;;12.65;;
46675;SDS011;32412;51.478;5.694;2023-04-28T14:15:50;12.70;;;10.75;;
46675;SDS011;32412;51.478;5.694;2023-04-28T14:18:17;12.07;;;9.95;;
46675;SDS011;32412;51.478;5.694;2023-04-28T14:20:43;11.38;;;9.45;;
46675;SDS011;32412;51.478;5.694;2023-04-28T14:23:09;10.25;;;8.98;;
46675;SDS011;32412;51.478;5.694;2023-04-28T14:25:36;11.27;;;9.45;;
46675;SDS011;32412;51.478;5.694;2023-04-28T14:28:02;10.95;;;9.35;;
46675;SDS011;32412;51.478;5.694;2023-04-28T14:30:28;10.13;;;9.02;;
46675;SDS011;32412;51.478;5.694;2023-04-28T14:32:55;10.30;;;7.43;;
46675;SDS011;32412;51.478;5.694;2023-04-28T14:35:21;7.63;;;6.82;;
46675;SDS011;32412;51.478;5.694;2023-04-28T14:37:47;6.97;;;6.10;;
46675;SDS011;32412;51.478;5.694;2023-04-28T14:40:13;5.85;;;5.25;;
46675;SDS011;32412;51.478;5.694;2023-04-28T14:42:40;6.72;;;6.03;;
46675;SDS011;32412;51.478;5.694;2023-04-28T14:45:06;8.40;;;6.80;;
46675;SDS011;32412;51.478;5.694;2023-04-28T14:47:33;7.32;;;6.28;;
46675;SDS011;32412;51.478;5.694;2023-04-28T14:50:00;6.22;;;5.55;;
46675;SDS011;32412;51.478;5.694;2023-04-28T14:52:26;9.00;;;6.50;;
46675;SDS011;32412;51.478;5.694;2023-04-28T14:54:54;8.70;;;6.90;;
46675;SDS011;32412;51.478;5.694;2023-04-28T14:57:22;11.55;;;8.05;;
46675;SDS011;32412;51.478;5.694;2023-04-28T14:59:51;9.98;;;7.15;;
46675;SDS011;32412;51.478;5.694;2023-04-28T15:02:18;5.88;;;4.25;;
46675;SDS011;32412;51.478;5.694;2023-04-28T15:04:45;6.50;;;4.95;;
46675;SDS011;32412;51.478;5.694;2023-04-28T15:07:13;7.50;;;4.90;;
46675;SDS011;32412;51.478;5.694;2023-04-28T15:09:39;6.72;;;5.45;;